Time;durP1;ratioP1;P1;durP2;ratioP2;P2;SDS_P1;SDS_P2;PMS_P1;PMS_P2;Temp;Humidity;BMP_temperature;BMP_pressure;BME280_temperature;BME280_humidity;BME280_pressure;Samples;Min_cycle;Max_cycle;Signal;HPM_P1;HPM_P2
2021/09/30 00:01:33;;;;;;;5.75;1.70;;;11.20;99.50;;;8.91;100.00;101308.78;4971374;28;20067;-69
2021/09/30 00:04:00;;;;;;;10.45;2.50;;;11.20;99.50;;;8.93;100.00;101312.19;4971116;28;20125;-69
2021/09/30 00:06:28;;;;;;;4.10;1.63;;;11.20;99.50;;;8.90;100.00;101309.75;4971193;28;20058;-69
2021/09/30 00:08:55;;;;;;;7.47;1.80;;;11.30;99.50;;;8.93;100.00;101304.03;4970538;28;20046;-68
2021/09/30 00:11:26;;;;;;;4.82;1.73;;;11.20;99.50;;;8.99;100.00;101299.84;4970765;28;20514;-69
2021/09/30 00:13:56;;;;;;;10.73;2.00;;;11.20;99.60;;;9.05;100.00;101303.81;4970975;28;20055;-69
2021/09/30 00:33:04;;;;;;;5.70;1.70;;;11.20;99.50;;;9.03;100.00;101317.53;4961519;28;20066;-69
2021/09/30 00:35:51;;;;;;;6.90;2.15;;;11.20;99.60;;;9.04;100.00;101319.22;4934027;29;20055;-69
2021/09/30 00:46:49;;;;;;;5.75;2.42;;;11.30;99.90;;;9.10;100.00;101329.50;4970149;28;20077;-69
2021/09/30 00:49:25;;;;;;;8.45;2.30;;;11.20;99.90;;;9.07;100.00;101323.50;4952298;28;20050;-68
2021/09/30 00:51:59;;;;;;;8.73;2.40;;;11.20;99.80;;;9.03;100.00;101332.97;4970290;28;20055;-69
2021/09/30 00:54:49;;;;;;;4.50;2.00;;;11.20;99.90;;;8.96;100.00;101328.16;4952534;28;20047;-69
2021/09/30 02:20:25;;;;;;;9.30;2.33;;;11.10;99.50;;;8.78;100.00;101368.00;4951298;28;20070;-69
2021/09/30 02:29:13;;;;;;;5.28;1.70;;;11.10;99.30;;;8.60;100.00;101376.09;4947156;28;20046;-68
2021/09/30 02:58:05;;;;;;;10.00;2.50;;;10.90;99.10;;;8.50;100.00;101389.69;4968236;28;20094;-68
2021/09/30 03:00:08;;;;;;;6.43;2.17;;;10.80;99.10;;;8.47;100.00;101397.28;4950660;28;20146;-69
2021/09/30 03:02:42;;;;;;;7.68;2.05;;;10.80;99.40;;;8.43;100.00;101391.28;4967344;28;20066;-68
2021/09/30 03:05:11;;;;;;;7.38;2.17;;;10.80;99.30;;;8.37;100.00;101400.00;4950836;28;20070;-68
2021/09/30 03:07:42;;;;;;;5.65;2.38;;;10.80;99.30;;;8.41;100.00;101395.97;4950844;28;20051;-68
2021/09/30 03:10:12;;;;;;;9.93;2.28;;;10.70;99.40;;;8.38;100.00;101394.44;4951752;28;20800;-68
2021/09/30 03:12:40;;;;;;;9.07;2.60;;;10.70;99.60;;;8.38;100.00;101399.00;4947498;28;20508;-69
2021/09/30 03:15:16;;;;;;;8.07;2.30;;;10.70;99.60;;;8.40;100.00;101400.56;4931521;29;20133;-68
2021/09/30 03:17:51;;;;;;;7.47;2.47;;;10.70;99.70;;;8.37;100.00;101402.72;4947488;28;20047;-69
2021/09/30 03:20:34;;;;;;;6.28;2.40;;;10.70;99.60;;;8.35;100.00;101393.88;4950218;28;20051;-69
2021/09/30 03:23:06;;;;;;;7.72;2.40;;;10.70;99.50;;;8.37;100.00;101397.28;4966659;28;20142;-69
2021/09/30 03:25:38;;;;;;;8.30;2.38;;;10.70;99.60;;;8.36;100.00;101398.31;4953644;28;20557;-69
2021/09/30 03:28:06;;;;;;;8.63;2.58;;;10.70;99.50;;;8.33;100.00;101399.44;4971241;28;20043;-68
2021/09/30 03:30:35;;;;;;;7.43;2.38;;;10.70;99.60;;;8.39;100.00;101406.13;4953922;28;20055;-68
2021/09/30 03:33:06;;;;;;;5.82;2.20;;;10.70;99.50;;;8.38;100.00;101404.44;4950566;28;20051;-69
2021/09/30 03:35:40;;;;;;;8.45;2.88;;;10.70;99.50;;;8.41;100.00;101401.41;4934577;29;20134;-69
2021/09/30 03:38:10;;;;;;;7.10;2.35;;;10.70;99.50;;;8.38;100.00;101402.56;4934564;29;20424;-69
2021/09/30 03:40:41;;;;;;;7.35;2.67;;;10.70;99.50;;;8.36;100.00;101404.56;4934820;29;20178;-69
2021/09/30 03:43:11;;;;;;;6.80;2.45;;;10.70;99.30;;;8.30;100.00;101404.28;4934571;29;20523;-69
2021/09/30 03:45:39;;;;;;;11.25;3.03;;;10.70;99.20;;;8.32;100.00;101413.13;4950188;29;20054;-68
2021/09/30 03:48:12;;;;;;;9.80;2.60;;;10.70;99.30;;;8.30;100.00;101418.72;4946109;28;20540;-69
2021/09/30 03:50:47;;;;;;;12.85;2.78;;;10.60;99.20;;;8.27;100.00;101420.88;4953258;28;20046;-69
2021/09/30 03:53:19;;;;;;;8.63;2.67;;;10.60;99.20;;;8.18;100.00;101419.91;4970915;28;20066;-69
2021/09/30 03:56:04;;;;;;;8.20;2.63;;;10.60;99.20;;;8.22;100.00;101418.59;4953450;28;20146;-69
2021/09/30 04:01:18;;;;;;;9.52;2.85;;;10.60;99.50;;;8.20;100.00;101423.31;4953374;28;20050;-68
2021/09/30 04:03:46;;;;;;;8.38;2.53;;;10.60;99.30;;;8.21;100.00;101431.31;4953434;28;20120;-69
2021/09/30 04:06:13;;;;;;;9.13;2.65;;;10.60;99.20;;;8.21;100.00;101419.63;4952918;28;20059;-69
2021/09/30 04:08:42;;;;;;;9.82;3.10;;;10.60;99.30;;;8.17;100.00;101424.47;4949622;28;20055;-69
2021/09/30 04:11:10;;;;;;;11.20;2.85;;;10.60;99.40;;;8.25;100.00;101420.19;4951499;29;20042;-69
2021/09/30 04:13:38;;;;;;;10.20;3.40;;;10.50;99.40;;;8.23;100.00;101428.47;4934381;29;20527;-69
2021/09/30 04:16:06;;;;;;;11.20;3.08;;;10.50;99.40;;;8.22;100.00;101422.19;4933805;29;20055;-68
2021/09/30 04:18:33;;;;;;;10.48;3.17;;;10.60;99.40;;;8.20;100.00;101426.88;4933778;29;20055;-69
2021/09/30 04:21:01;;;;;;;9.30;2.88;;;10.60;99.40;;;8.21;100.00;101425.03;4951132;29;20043;-69
2021/09/30 04:23:28;;;;;;;9.55;3.22;;;10.50;99.40;;;8.19;100.00;101429.75;4933779;29;20055;-69
2021/09/30 04:25:57;;;;;;;11.15;3.60;;;10.50;99.40;;;8.16;100.00;101438.16;4933404;29;20055;-69
2021/09/30 04:28:24;;;;;;;12.52;3.80;;;10.50;99.30;;;8.14;100.00;101426.63;4933562;29;20921;-69
2021/09/30 04:30:57;;;;;;;8.57;2.88;;;10.50;99.30;;;8.15;100.00;101445.47;4933472;29;20631;-69
2021/09/30 04:33:29;;;;;;;9.60;3.92;;;10.50;99.40;;;8.19;100.00;101444.16;4987194;23;20050;-74
2021/09/30 04:35:58;;;;;;;10.50;3.20;;;10.50;99.50;;;8.16;100.00;101433.59;4989562;28;20521;-73
2021/09/30 04:38:26;;;;;;;10.15;3.10;;;10.50;99.50;;;8.16;100.00;101454.44;4982072;28;20118;-73
2021/09/30 04:40:54;;;;;;;11.98;3.33;;;10.50;99.40;;;8.16;100.00;101449.00;4987906;28;20122;-72
2021/09/30 04:43:23;;;;;;;11.98;3.55;;;10.50;99.30;;;8.16;100.00;101449.00;4987880;28;20105;-70
2021/09/30 04:45:51;;;;;;;7.32;3.03;;;10.40;99.30;;;8.20;100.00;101453.13;4973958;28;20145;-71
2021/09/30 04:48:19;;;;;;;9.07;3.15;;;10.50;99.50;;;8.19;100.00;101448.75;5006097;28;20061;-70
2021/09/30 04:51:10;;;;;;;11.32;3.53;;;10.50;99.40;;;8.12;100.00;101451.16;4989747;28;20133;-71
2021/09/30 04:53:38;;;;;;;9.93;3.70;;;10.50;99.40;;;8.13;100.00;101457.44;4991933;28;20058;-71
2021/09/30 04:56:06;;;;;;;10.13;3.92;;;10.50;99.30;;;8.14;100.00;101451.03;4992257;28;20057;-69
2021/09/30 04:58:41;;;;;;;8.45;3.25;;;10.50;99.40;;;8.13;100.00;101462.84;4990250;28;20105;-69
2021/09/30 05:01:09;;;;;;;12.18;3.38;;;10.50;99.30;;;8.10;100.00;101461.28;4990552;28;20050;-71
2021/09/30 05:03:41;;;;;;;11.05;2.95;;;10.50;99.40;;;8.12;100.00;101462.00;4989562;28;20054;-69
2021/09/30 05:06:09;;;;;;;10.50;3.15;;;10.50;99.30;;;8.10;100.00;101464.00;4988449;28;20081;-71
2021/09/30 05:08:36;;;;;;;13.95;3.40;;;10.40;99.00;;;8.14;100.00;101462.72;4985661;28;20050;-70
2021/09/30 05:11:04;;;;;;;11.13;3.08;;;10.40;98.90;;;8.16;100.00;101470.72;4989495;28;20072;-69
2021/09/30 05:13:38;;;;;;;13.45;3.28;;;10.40;99.20;;;8.17;100.00;101473.28;4988669;28;20551;-69
2021/09/30 05:16:09;;;;;;;;;;;10.40;99.20;;;8.14;100.00;101470.00;4988029;28;20058;-70
2021/09/30 05:19:05;;;;;;;9.70;3.17;;;10.50;99.20;;;8.09;100.00;101465.03;4979002;28;19969;-70
2021/09/30 05:21:33;;;;;;;9.88;3.08;;;10.40;98.80;;;8.12;100.00;101475.56;4986501;28;20053;-71
2021/09/30 05:24:01;;;;;;;12.75;3.45;;;10.40;98.70;;;8.10;100.00;101474.84;4984855;28;20051;-71
2021/09/30 05:26:29;;;;;;;10.93;3.30;;;10.40;99.00;;;8.10;100.00;101482.97;4995017;28;20073;-72
2021/09/30 05:29:00;;;;;;;13.75;3.50;;;10.40;99.00;;;8.10;100.00;101476.72;4989159;28;20054;-71
2021/09/30 05:31:30;;;;;;;8.52;2.97;;;10.40;98.90;;;8.12;100.00;101480.97;5004258;28;20055;-73
2021/09/30 05:34:24;;;;;;;9.13;3.30;;;10.40;99.00;;;8.10;100.00;101474.00;4955317;28;20411;-71
2021/09/30 05:36:51;;;;;;;9.23;3.30;;;10.40;98.90;;;8.07;100.00;101477.00;4969814;28;20102;-72
2021/09/30 05:39:19;;;;;;;13.23;3.47;;;10.40;98.80;;;8.11;100.00;101478.41;4968528;28;20051;-70
2021/09/30 05:41:48;;;;;;;12.82;3.72;;;10.40;98.90;;;8.08;100.00;101479.56;4975641;28;20537;-71
2021/09/30 05:44:21;;;;;;;11.82;3.65;;;10.40;98.80;;;8.13;100.00;101481.81;4988062;28;20117;-70
2021/09/30 05:46:54;;;;;;;11.77;4.53;;;10.40;99.00;;;8.15;100.00;101480.72;4974120;28;20050;-70
2021/09/30 05:49:23;;;;;;;13.52;3.60;;;10.40;98.80;;;8.18;100.00;101482.25;4968011;28;20519;-70
2021/09/30 05:52:05;;;;;;;19.08;4.05;;;10.40;99.00;;;8.15;100.00;101488.84;4985469;28;20054;-70
2021/09/30 05:54:50;;;;;;;12.48;4.10;;;10.40;98.90;;;8.19;100.00;101492.13;4987316;28;20050;-70
2021/09/30 05:57:26;;;;;;;14.05;4.85;;;10.40;98.90;;;8.16;100.00;101489.69;5003778;28;20050;-70
2021/09/30 05:59:53;;;;;;;8.60;3.63;;;10.40;98.80;;;8.18;100.00;101488.53;4988716;28;20042;-68
2021/09/30 06:10:39;;;;;;;12.60;4.10;;;10.50;98.90;;;8.25;100.00;101486.09;4983921;28;20050;-70
2021/09/30 06:13:09;;;;;;;12.10;3.53;;;10.40;98.90;;;8.30;100.00;101488.38;4997875;28;20062;-71
2021/09/30 06:15:40;;;;;;;9.30;3.40;;;10.50;99.00;;;8.41;100.00;101491.84;4968099;28;20055;-70
2021/09/30 06:18:09;;;;;;;11.02;3.53;;;10.40;98.90;;;8.39;100.00;101492.91;4967641;28;20050;-69
2021/09/30 06:20:42;;;;;;;10.70;4.22;;;10.50;99.10;;;8.39;100.00;101498.34;4967816;28;20126;-71
2021/09/30 06:23:12;;;;;;;15.75;3.90;;;10.50;99.10;;;8.43;100.00;101499.78;4982335;28;20049;-70
2021/09/30 06:25:39;;;;;;;12.35;4.30;;;10.50;99.20;;;8.49;100.00;101493.81;4986490;28;20058;-69
2021/09/30 06:28:09;;;;;;;16.63;4.50;;;10.60;98.80;;;8.57;100.00;101498.50;4985803;28;20054;-69
2021/09/30 06:30:36;;;;;;;14.23;4.10;;;10.50;98.90;;;8.60;100.00;101496.34;5002364;28;20066;-69
2021/09/30 06:33:25;;;;;;;11.70;4.63;;;10.60;99.00;;;8.58;100.00;101503.75;4986312;28;20064;-69
2021/09/30 06:36:19;;;;;;;12.52;4.20;;;10.60;99.20;;;8.65;100.00;101497.75;4986146;28;20058;-72
2021/09/30 06:38:47;;;;;;;19.23;4.82;;;10.60;99.00;;;8.71;100.00;101497.16;4976382;28;20051;-71
2021/09/30 06:41:14;;;;;;;14.45;5.22;;;10.70;99.00;;;8.78;100.00;101498.28;4968896;28;20043;-70
2021/09/30 06:43:42;;;;;;;14.38;4.55;;;10.80;98.90;;;8.82;100.00;101501.56;4986570;28;20050;-69
2021/09/30 06:46:29;;;;;;;12.65;4.63;;;10.80;99.10;;;8.87;100.00;101510.09;4989684;28;20066;-70
2021/09/30 06:49:02;;;;;;;10.75;4.07;;;10.80;99.00;;;8.87;100.00;101494.69;4987379;28;20050;-71
2021/09/30 06:51:51;;;;;;;13.82;4.35;;;10.90;98.90;;;8.97;100.00;101508.22;4985575;28;20178;-69
2021/09/30 06:54:18;;;;;;;16.58;5.30;;;10.90;99.00;;;8.99;100.00;101500.75;4987191;28;20161;-72
2021/09/30 06:57:21;;;;;;;18.55;5.15;;;10.90;99.10;;;9.05;100.00;101511.03;4946759;29;20047;-72
2021/09/30 07:00:10;;;;;;;14.32;3.80;;;10.90;98.50;;;9.12;100.00;101511.25;4987610;28;20053;-70
2021/09/30 07:02:57;;;;;;;19.10;3.92;;;10.90;98.70;;;9.13;100.00;101502.97;4989702;28;20073;-70
2021/09/30 07:05:44;;;;;;;14.07;3.20;;;11.00;98.70;;;9.19;100.00;101515.09;4992236;28;20053;-70
2021/09/30 07:08:19;;;;;;;11.95;3.80;;;11.10;98.80;;;9.27;100.00;101517.03;4990256;28;20672;-70
2021/09/30 07:10:47;;;;;;;11.77;4.18;;;11.10;98.10;;;9.35;100.00;101518.00;4990840;28;20062;-70
2021/09/30 07:13:15;;;;;;;15.55;3.50;;;11.10;98.60;;;9.39;100.00;101519.41;4976869;28;20049;-69
2021/09/30 07:15:42;;;;;;;14.18;3.90;;;11.10;98.10;;;9.44;100.00;101521.66;4972445;28;20081;-70
2021/09/30 07:18:15;;;;;;;11.48;3.25;;;11.20;98.30;;;9.49;100.00;101518.50;4971845;28;20578;-70
2021/09/30 07:20:44;;;;;;;12.30;3.67;;;11.20;98.40;;;9.53;100.00;101523.47;4971732;28;20423;-70
2021/09/30 07:23:11;;;;;;;12.98;3.05;;;11.20;98.20;;;9.61;100.00;101517.25;4982521;28;20054;-69
2021/09/30 07:25:39;;;;;;;15.57;3.17;;;11.30;98.50;;;9.71;100.00;101533.50;4971086;28;20078;-70
2021/09/30 07:28:07;;;;;;;11.00;3.22;;;11.30;98.30;;;9.74;100.00;101527.75;4971107;28;20105;-70
2021/09/30 07:30:34;;;;;;;13.63;4.25;;;11.40;98.10;;;9.82;100.00;101524.28;4971047;28;20054;-71
2021/09/30 07:33:02;;;;;;;16.48;3.50;;;11.50;98.50;;;9.93;99.91;101532.19;4980595;28;20043;-69
2021/09/30 07:35:29;;;;;;;10.50;3.47;;;11.50;98.10;;;10.01;99.92;101531.41;4979257;28;20526;-70
2021/09/30 07:37:58;;;;;;;13.02;4.13;;;11.60;98.00;;;10.08;99.72;101525.19;4981341;28;20058;-70
2021/09/30 07:40:26;;;;;;;12.75;3.78;;;11.70;98.10;;;10.14;99.08;101530.00;4987851;28;20053;-70
2021/09/30 07:42:53;;;;;;;11.57;3.65;;;11.70;97.60;;;10.25;98.53;101531.63;4987242;28;20050;-70
2021/09/30 07:45:21;;;;;;;11.73;3.22;;;11.80;97.60;;;10.35;97.58;101528.84;5007978;28;20127;-70
2021/09/30 07:47:49;;;;;;;12.27;3.58;;;11.80;97.30;;;10.40;97.68;101529.25;5009236;28;20046;-70
2021/09/30 07:50:18;;;;;;;9.85;2.88;;;11.90;97.00;;;10.47;97.63;101530.31;5008433;28;20046;-70
2021/09/30 07:52:45;;;;;;;13.07;3.63;;;11.90;97.00;;;10.56;96.34;101528.50;4988488;28;21503;-70
2021/09/30 07:55:14;;;;;;;12.07;2.95;;;12.00;96.70;;;10.62;97.20;101527.84;4989469;28;20549;-70
2021/09/30 07:57:41;;;;;;;11.00;3.10;;;12.10;97.00;;;10.71;97.08;101536.94;4989957;28;20046;-70
2021/09/30 08:00:10;;;;;;;14.02;3.33;;;12.20;96.90;;;10.76;96.61;101537.31;5002600;28;20395;-70
2021/09/30 08:02:40;;;;;;;10.30;3.17;;;12.20;96.70;;;10.80;96.14;101532.41;4995124;28;20046;-70
2021/09/30 08:05:09;;;;;;;10.02;3.35;;;12.40;96.40;;;10.85;96.86;101539.06;4983316;28;20070;-71
2021/09/30 08:07:37;;;;;;;10.45;3.20;;;12.40;96.60;;;10.92;95.77;101534.66;4987396;28;20050;-70
2021/09/30 08:10:06;;;;;;;11.10;2.88;;;12.40;95.10;;;10.99;94.96;101547.66;4984750;28;20043;-70
2021/09/30 08:12:35;;;;;;;13.00;3.05;;;12.50;96.00;;;11.07;94.75;101547.69;4986742;28;20469;-70
2021/09/30 08:15:03;;;;;;;12.05;3.30;;;12.50;95.60;;;11.11;94.49;101539.03;4990781;28;20573;-72
2021/09/30 08:17:30;;;;;;;14.90;3.50;;;12.60;95.00;;;11.17;94.05;101531.22;4990075;28;20670;-70
2021/09/30 08:19:58;;;;;;;18.13;3.90;;;12.60;94.80;;;11.22;94.07;101537.03;5001919;28;20107;-70
2021/09/30 08:22:25;;;;;;;9.27;2.85;;;12.60;94.90;;;11.29;94.24;101527.19;4984527;28;20524;-70
2021/09/30 08:24:52;;;;;;;12.48;3.15;;;12.70;95.10;;;11.33;93.20;101532.16;5005373;28;20050;-70
2021/09/30 08:27:20;;;;;;;11.10;3.08;;;12.70;94.80;;;11.37;93.00;101542.72;4992107;28;20046;-70
2021/09/30 08:29:49;;;;;;;12.05;3.45;;;12.80;94.70;;;11.46;93.42;101541.72;4979581;28;20050;-70
2021/09/30 08:32:16;;;;;;;16.63;3.15;;;12.80;94.40;;;11.51;92.61;101537.47;4979870;28;20046;-70
2021/09/30 08:34:43;;;;;;;10.95;2.90;;;12.90;94.10;;;11.55;92.10;101546.19;4985574;28;20137;-70
2021/09/30 08:37:11;;;;;;;12.95;3.67;;;13.00;93.70;;;11.59;92.27;101542.09;4984299;28;20042;-70
2021/09/30 08:39:39;;;;;;;13.25;3.55;;;13.00;93.60;;;11.65;91.57;101549.63;4987707;28;20042;-70
2021/09/30 08:42:06;;;;;;;15.88;3.42;;;13.00;92.90;;;11.72;92.15;101545.19;5005450;28;20120;-70
2021/09/30 08:44:34;;;;;;;11.68;3.10;;;13.10;93.60;;;11.78;93.33;101553.75;5009109;28;20509;-70
2021/09/30 08:47:05;;;;;;;9.38;2.70;;;13.20;94.30;;;11.81;92.08;101557.00;4972584;28;20043;-70
2021/09/30 08:49:33;;;;;;;10.73;2.88;;;13.30;93.40;;;11.87;92.38;101560.94;4968978;28;20073;-70
2021/09/30 08:52:01;;;;;;;9.32;2.60;;;13.30;93.90;;;11.91;91.27;101554.16;4970522;28;20043;-70
2021/09/30 08:54:29;;;;;;;9.75;2.95;;;13.30;92.70;;;11.95;91.09;101558.25;4970179;28;20100;-70
2021/09/30 08:56:56;;;;;;;9.75;2.60;;;13.40;92.60;;;12.03;91.18;101550.09;4983394;28;20050;-70
2021/09/30 08:59:28;;;;;;;12.90;3.05;;;13.40;92.90;;;12.08;90.72;101553.13;4989202;28;20085;-70
2021/09/30 09:02:10;;;;;;;13.35;3.40;;;13.50;92.60;;;12.15;90.39;101549.72;4989109;28;20051;-70
2021/09/30 09:04:51;;;;;;;8.35;2.80;;;13.50;92.40;;;12.18;89.78;101550.25;4988696;28;20042;-69
2021/09/30 09:07:25;;;;;;;12.05;2.60;;;13.60;91.90;;;12.18;89.03;101552.13;4989848;28;20046;-70
2021/09/30 09:09:53;;;;;;;9.98;2.67;;;13.60;91.40;;;12.23;90.78;101552.47;4988468;28;20070;-70
2021/09/30 09:12:21;;;;;;;12.13;2.17;;;13.60;92.70;;;12.24;90.42;101551.44;4988027;28;20046;-70
2021/09/30 09:14:51;;;;;;;8.77;2.17;;;13.70;92.50;;;12.24;89.85;101549.59;4989209;28;20094;-70
2021/09/30 09:17:21;;;;;;;11.77;2.17;;;13.70;92.00;;;12.25;90.16;101555.91;4988972;28;20844;-70
2021/09/30 09:19:51;;;;;;;8.95;2.40;;;13.60;92.00;;;12.28;89.90;101558.25;4988614;28;20164;-70
2021/09/30 09:22:22;;;;;;;13.00;2.17;;;13.80;91.80;;;12.30;89.55;101556.25;4984115;28;20093;-70
2021/09/30 09:24:59;;;;;;;11.60;2.70;;;13.80;91.30;;;12.35;88.26;101553.84;4987479;28;20260;-70
2021/09/30 09:27:52;;;;;;;9.38;1.90;;;13.80;90.90;;;12.40;88.22;101556.91;4988886;28;20050;-70
2021/09/30 09:30:42;;;;;;;10.18;2.35;;;13.80;90.60;;;12.43;88.93;101556.59;4988685;28;20050;-70
2021/09/30 09:33:19;;;;;;;16.17;2.63;;;13.90;91.10;;;12.47;87.69;101549.75;4988340;28;20046;-70
2021/09/30 09:36:01;;;;;;;8.30;2.30;;;14.00;90.10;;;12.51;87.61;101555.72;4987920;28;20122;-71
2021/09/30 09:38:31;;;;;;;10.13;2.60;;;14.00;90.60;;;12.51;87.44;101553.84;4987658;28;20050;-70
2021/09/30 09:41:05;;;;;;;7.70;2.10;;;14.00;89.90;;;12.55;87.23;101554.34;4988218;28;20049;-71
2021/09/30 09:43:39;;;;;;;9.70;2.38;;;14.10;89.90;;;12.60;88.00;101551.09;4986723;28;20391;-70
2021/09/30 09:46:09;;;;;;;7.65;1.83;;;14.10;90.50;;;12.66;87.08;101539.47;4988178;28;20089;-70
2021/09/30 09:48:39;;;;;;;11.07;2.20;;;14.10;89.80;;;12.68;86.34;101540.19;4987762;28;20062;-70
2021/09/30 09:51:11;;;;;;;11.98;2.38;;;14.20;89.40;;;12.76;86.69;101539.31;4988128;28;20046;-70
2021/09/30 09:53:39;;;;;;;11.48;2.00;;;14.20;89.80;;;12.80;86.38;101536.03;4987216;28;20080;-70
2021/09/30 09:56:16;;;;;;;8.50;2.20;;;14.20;89.70;;;12.87;86.47;101536.19;4987906;28;20057;-70
2021/09/30 09:58:50;;;;;;;9.38;1.77;;;14.30;89.80;;;12.89;86.30;101535.00;4987466;28;20145;-69
2021/09/30 10:01:23;;;;;;;9.32;2.25;;;14.30;89.70;;;12.91;85.28;101532.09;4987461;28;20047;-70
2021/09/30 10:03:59;;;;;;;12.48;2.38;;;14.40;88.40;;;12.98;85.79;101533.06;4988201;28;20050;-70
2021/09/30 10:06:32;;;;;;;9.38;2.15;;;14.40;89.20;;;13.09;84.66;101543.63;4987989;28;20038;-70
2021/09/30 10:09:01;;;;;;;5.40;1.75;;;14.40;88.60;;;13.19;84.57;101540.69;4987520;28;20054;-70
2021/09/30 10:11:29;;;;;;;9.35;1.83;;;14.50;88.70;;;13.23;82.51;101539.34;4987797;28;20057;-70
2021/09/30 10:13:59;;;;;;;9.43;2.17;;;14.50;87.50;;;13.29;83.07;101530.41;4988158;28;20046;-70
2021/09/30 10:16:28;;;;;;;11.87;2.00;;;14.60;87.70;;;13.37;82.50;101542.38;4988487;28;20387;-70
2021/09/30 10:18:59;;;;;;;6.15;1.60;;;14.60;87.10;;;13.41;81.79;101538.25;4987923;28;20050;-70
2021/09/30 10:21:29;;;;;;;8.35;2.35;;;14.70;86.80;;;13.44;81.39;101535.16;4986682;28;20070;-70
2021/09/30 10:24:01;;;;;;;8.73;1.80;;;14.70;86.70;;;13.51;81.92;101538.03;4987685;28;20054;-70
2021/09/30 10:26:35;;;;;;;8.93;2.50;;;14.70;87.20;;;13.54;78.44;101537.69;4987424;28;20526;-69
2021/09/30 10:29:03;;;;;;;9.18;1.92;;;14.80;84.50;;;13.56;76.96;101539.22;4987257;28;20046;-70
2021/09/30 10:31:34;;;;;;;11.95;1.83;;;14.80;84.20;;;13.64;77.10;101530.94;4987635;28;20429;-70
2021/09/30 10:34:07;;;;;;;9.13;1.98;;;14.80;83.50;;;13.71;78.58;101522.88;4990406;28;20046;-69
2021/09/30 10:36:40;;;;;;;7.22;1.77;;;14.90;85.00;;;13.79;76.76;101530.19;4991418;28;20101;-70
2021/09/30 10:39:35;;;;;;;9.20;1.70;;;14.90;83.60;;;13.83;77.31;101521.44;4990833;28;20526;-70
2021/09/30 10:42:14;;;;;;;7.40;1.60;;;15.00;83.70;;;13.81;76.25;101525.38;4967896;28;20369;-70
2021/09/30 10:44:41;;;;;;;8.63;1.65;;;15.00;82.90;;;13.75;74.50;101526.13;4992012;28;20070;-70
2021/09/30 10:47:09;;;;;;;8.68;1.65;;;15.00;81.30;;;13.74;74.93;101521.66;4991682;28;20129;-69
2021/09/30 10:49:47;;;;;;;8.90;1.55;;;15.00;81.70;;;13.77;75.00;101526.78;4991216;28;20113;-70
2021/09/30 10:52:33;;;;;;;5.70;1.40;;;15.00;82.00;;;13.75;74.47;101523.38;4991942;28;20058;-70
2021/09/30 10:55:33;;;;;;;12.13;1.70;;;15.10;81.40;;;13.82;75.28;101516.13;4991088;28;20209;-70
2021/09/30 10:58:02;;;;;;;13.32;1.83;;;15.10;82.20;;;13.88;76.26;101509.94;4991571;28;20871;-70
2021/09/30 11:00:55;;;;;;;6.93;1.27;;;15.20;82.80;;;13.84;74.15;101517.66;4990208;28;20054;-70
2021/09/30 11:03:24;;;;;;;9.30;1.85;;;15.20;80.60;;;13.80;74.76;101512.72;4989867;28;20054;-70
2021/09/30 11:06:27;;;;;;;11.00;1.77;;;15.20;81.20;;;13.81;75.25;101512.53;4991342;28;20109;-70
2021/09/30 11:09:16;;;;;;;7.03;1.45;;;15.20;81.40;;;13.78;74.71;101506.59;4991111;28;20050;-71
2021/09/30 11:11:47;;;;;;;6.78;1.70;;;15.20;81.40;;;13.74;72.75;101510.72;4990931;28;20046;-71
2021/09/30 11:14:21;;;;;;;5.07;1.30;;;15.20;79.30;;;13.75;72.84;101507.81;4991408;28;20465;-71
2021/09/30 11:16:51;;;;;;;5.78;1.33;;;15.20;79.90;;;13.79;70.69;101508.31;4991610;28;20764;-69
2021/09/30 11:19:33;;;;;;;5.82;1.20;;;15.20;77.60;;;13.81;72.75;101506.22;4991032;28;20124;-70
2021/09/30 11:22:05;;;;;;;8.23;1.65;;;15.20;79.30;;;13.83;71.47;101502.28;4990281;28;20050;-70
2021/09/30 11:24:53;;;;;;;7.78;1.33;;;15.20;78.70;;;13.85;70.88;101513.03;4988850;28;20053;-70
2021/09/30 11:27:30;;;;;;;5.55;1.40;;;15.20;78.70;;;13.87;68.79;101516.44;4972352;28;20057;-71
2021/09/30 11:30:22;;;;;;;5.25;1.10;;;15.20;76.70;;;13.94;69.83;101511.09;4970497;28;20050;-70
2021/09/30 11:32:49;;;;;;;6.00;1.42;;;15.20;77.90;;;13.96;68.63;101509.88;4972268;28;20121;-70
2021/09/30 11:35:17;;;;;;;9.43;1.38;;;15.20;77.00;;;13.95;67.80;101502.69;4977216;28;20038;-71
2021/09/30 11:37:46;;;;;;;10.63;1.70;;;15.20;75.90;;;13.98;68.05;101499.59;4988520;28;20581;-71
2021/09/30 11:40:21;;;;;;;6.40;1.35;;;15.20;76.00;;;14.06;69.33;101496.78;4989041;28;20073;-71
2021/09/30 11:42:54;;;;;;;8.00;1.50;;;15.20;77.50;;;14.13;70.75;101494.19;4991533;28;20065;-71
2021/09/30 11:45:27;;;;;;;6.25;1.50;;;15.30;78.70;;;14.20;71.91;101494.28;4990981;28;20082;-70
2021/09/30 11:48:05;;;;;;;6.93;1.13;;;15.30;79.60;;;14.24;69.56;101496.50;4992288;28;20053;-70
2021/09/30 11:50:33;;;;;;;9.43;1.60;;;15.40;78.00;;;14.27;69.40;101495.25;4992618;28;20516;-71
2021/09/30 11:53:12;;;;;;;6.65;1.25;;;15.50;77.40;;;14.32;69.45;101490.09;4991701;28;20076;-71
2021/09/30 11:55:43;;;;;;;6.07;1.10;;;15.50;77.50;;;14.37;70.38;101495.84;4990831;28;20054;-71
2021/09/30 11:58:16;;;;;;;3.92;1.20;;;15.50;78.20;;;14.41;69.07;101491.72;4992002;28;20521;-69
2021/09/30 12:00:48;;;;;;;6.55;1.10;;;15.60;77.20;;;14.44;67.82;101485.00;4992615;28;20049;-69
2021/09/30 12:03:15;;;;;;;11.02;1.33;;;15.60;76.30;;;14.53;67.63;101486.63;4992115;28;20823;-72
2021/09/30 12:05:44;;;;;;;6.57;1.33;;;15.70;76.20;;;14.60;67.73;101482.13;4991685;28;20094;-71
2021/09/30 12:08:15;;;;;;;7.32;1.35;;;15.70;76.00;;;14.65;66.82;101481.56;4989388;28;20050;-71
2021/09/30 12:10:42;;;;;;;;;;;15.80;75.20;;;14.68;67.13;101469.38;4992059;28;20046;-72
2021/09/30 12:13:16;;;;;;;6.35;1.25;;;15.80;75.70;;;14.70;67.81;101462.69;4991160;28;20021;-71
2021/09/30 12:15:43;;;;;;;5.15;1.15;;;15.90;76.60;;;14.68;67.33;101469.38;4991247;28;20063;-71
2021/09/30 12:18:21;;;;;;;4.55;1.20;;;15.90;75.60;;;14.62;67.95;101469.09;4990988;28;20078;-71
2021/09/30 12:20:55;;;;;;;7.00;1.10;;;15.90;76.10;;;14.54;65.73;101468.28;4991741;28;20449;-70
2021/09/30 12:23:25;;;;;;;6.95;1.25;;;15.90;73.80;;;14.44;66.42;101458.44;4991146;28;20462;-70
2021/09/30 12:25:54;;;;;;;11.20;1.40;;;15.90;74.30;;;14.34;65.92;101468.00;4990297;28;20477;-71
2021/09/30 12:28:22;;;;;;;5.75;1.13;;;15.80;73.50;;;14.22;66.59;101465.72;4991295;28;20085;-71
2021/09/30 12:30:49;;;;;;;6.15;1.10;;;15.80;74.10;;;14.16;66.15;101460.94;4990844;28;20058;-71
2021/09/30 12:33:17;;;;;;;5.97;1.20;;;15.80;74.00;;;14.13;66.89;101464.06;4991210;28;20056;-69
2021/09/30 12:35:44;;;;;;;7.82;1.15;;;15.80;74.00;;;14.17;67.98;101461.81;4990694;28;20645;-69
2021/09/30 12:38:14;;;;;;;6.20;1.10;;;15.70;74.90;;;14.24;68.56;101462.75;4989329;28;20085;-69
2021/09/30 12:40:46;;;;;;;7.70;1.33;;;15.80;75.60;;;14.26;66.23;101449.75;4989993;28;20058;-70
2021/09/30 12:43:18;;;;;;;7.95;1.20;;;15.80;73.30;;;14.24;66.00;101447.19;4990350;28;20038;-69
2021/09/30 12:45:57;;;;;;;4.60;1.30;;;15.70;73.90;;;14.30;67.22;101445.59;4990566;28;20054;-69
2021/09/30 12:48:27;;;;;;;6.75;1.35;;;15.70;74.70;;;14.37;65.98;101441.06;4989274;28;20058;-70
2021/09/30 12:51:02;;;;;;;6.45;1.20;;;15.70;74.10;;;14.38;66.05;101448.25;4990673;28;20062;-69
2021/09/30 12:53:31;;;;;;;9.23;1.40;;;15.80;74.00;;;14.36;64.69;101457.69;4990739;28;20046;-69
2021/09/30 12:56:07;;;;;;;6.25;1.08;;;15.70;73.30;;;14.37;66.38;101454.75;4988088;28;20124;-70
2021/09/30 12:58:39;;;;;;;6.20;1.30;;;15.80;74.40;;;14.33;67.07;101458.91;4990284;28;20042;-69
2021/09/30 13:01:26;;;;;;;5.00;1.13;;;15.80;74.80;;;14.26;67.57;101439.66;4989552;28;20046;-69
2021/09/30 13:04:14;;;;;;;5.13;1.10;;;15.80;75.10;;;14.26;67.85;101447.03;4989726;28;20046;-70